Time;durP1;ratioP1;P1;durP2;ratioP2;P2;SDS_P1;SDS_P2;PMS_P1;PMS_P2;Temp;Humidity;BMP_temperature;BMP_pressure;BME280_temperature;BME280_humidity;BME280_pressure;Samples;Min_cycle;Max_cycle;Signal;HPM_P1;HPM_P2
2021/09/15 00:00:23;;;;;;;29.88;26.67;;;;;;;;;;5034775;28;20083;-73
2021/09/15 00:02:49;;;;;;;30.25;27.05;;;;;;;;;;5037455;28;20440;-73
2021/09/15 00:05:15;;;;;;;32.30;26.10;;;;;;;;;;5043138;28;20603;-73
2021/09/15 00:07:41;;;;;;;32.25;27.27;;;;;;;;;;5043417;28;20480;-73
2021/09/15 00:10:07;;;;;;;29.70;26.60;;;;;;;;;;5045200;28;20036;-73
2021/09/15 00:12:33;;;;;;;34.00;28.35;;;;;;;;;;5036684;28;20041;-73
2021/09/15 00:14:59;;;;;;;29.05;25.95;;;;;;;;;;5040129;28;20029;-73
2021/09/15 00:17:25;;;;;;;28.17;25.15;;;;;;;;;;5039782;28;20032;-73
2021/09/15 00:19:51;;;;;;;30.42;26.13;;;;;;;;;;5039749;28;20037;-73
2021/09/15 00:22:17;;;;;;;29.80;26.45;;;;;;;;;;5050266;28;20032;-73
2021/09/15 00:24:43;;;;;;;30.88;27.58;;;;;;;;;;5041791;28;20028;-73
2021/09/15 00:27:09;;;;;;;34.17;27.27;;;;;;;;;;5039388;28;20025;-73
2021/09/15 00:29:38;;;;;;;29.98;26.50;;;;;;;;;;5040474;28;20048;-73
2021/09/15 00:32:04;;;;;;;32.13;27.40;;;;;;;;;;5037895;28;20112;-73
2021/09/15 00:34:30;;;;;;;31.80;27.83;;;;;;;;;;5048792;28;20064;-73
2021/09/15 00:36:57;;;;;;;31.48;28.05;;;;;;;;;;5039665;28;20484;-74
2021/09/15 00:39:23;;;;;;;29.55;26.45;;;;;;;;;;5045759;28;20088;-74
2021/09/15 00:41:49;;;;;;;30.75;27.33;;;;;;;;;;5039327;28;20069;-73
2021/09/15 00:44:15;;;;;;;31.13;26.52;;;;;;;;;;5037556;28;20614;-73
2021/09/15 00:46:41;;;;;;;30.67;27.38;;;;;;;;;;5046588;28;20033;-73
2021/09/15 00:49:08;;;;;;;30.52;27.17;;;;;;;;;;5033952;28;20025;-73
2021/09/15 00:51:35;;;;;;;31.15;27.45;;;;;;;;;;5044424;28;20047;-75
2021/09/15 00:54:04;;;;;;;30.17;26.87;;;;;;;;;;5035460;28;20036;-73
2021/09/15 00:56:30;;;;;;;29.25;25.25;;;;;;;;;;5032619;28;20029;-72
2021/09/15 00:58:56;;;;;;;29.08;25.02;;;;;;;;;;5035146;28;20100;-73
2021/09/15 01:01:22;;;;;;;30.92;26.77;;;;;;;;;;5039519;28;20100;-73
2021/09/15 01:03:48;;;;;;;28.25;25.00;;;;;;;;;;5035250;28;20021;-73
2021/09/15 01:06:14;;;;;;;29.90;25.42;;;;;;;;;;5041284;28;20028;-73
2021/09/15 01:08:41;;;;;;;28.20;25.20;;;;;;;;;;5036399;28;20023;-72
2021/09/15 01:11:07;;;;;;;27.80;24.63;;;;;;;;;;5036452;28;20034;-72
2021/09/15 01:13:34;;;;;;;26.25;23.38;;;;;;;;;;5034313;28;20065;-72
2021/09/15 01:16:00;;;;;;;28.98;25.00;;;;;;;;;;5039642;28;20029;-72
2021/09/15 01:18:26;;;;;;;30.48;25.30;;;;;;;;;;5041681;28;20051;-72
2021/09/15 01:20:52;;;;;;;30.27;26.27;;;;;;;;;;5037936;28;20074;-72
2021/09/15 01:23:18;;;;;;;29.35;26.02;;;;;;;;;;5044729;28;20159;-72
2021/09/15 01:25:44;;;;;;;31.92;26.83;;;;;;;;;;5047827;28;20104;-72
2021/09/15 01:28:10;;;;;;;29.35;26.25;;;;;;;;;;5040322;28;20053;-72
2021/09/15 01:30:37;;;;;;;28.80;25.85;;;;;;;;;;5033057;28;20017;-72
2021/09/15 01:33:03;;;;;;;29.88;26.77;;;;;;;;;;5034128;28;20041;-72
2021/09/15 01:35:28;;;;;;;32.25;26.98;;;;;;;;;;5038184;28;20346;-72
2021/09/15 01:37:56;;;;;;;32.87;27.67;;;;;;;;;;5043500;28;20080;-72
2021/09/15 01:40:22;;;;;;;31.45;27.60;;;;;;;;;;5045887;28;20057;-72
2021/09/15 01:42:47;;;;;;;31.75;27.73;;;;;;;;;;5041135;28;20029;-72
2021/09/15 01:45:13;;;;;;;29.30;26.20;;;;;;;;;;5041477;28;20059;-72
2021/09/15 01:47:41;;;;;;;28.38;25.38;;;;;;;;;;5041415;28;20048;-72
2021/09/15 01:50:07;;;;;;;30.00;26.07;;;;;;;;;;5038654;28;20083;-73
2021/09/15 01:52:33;;;;;;;31.48;27.75;;;;;;;;;;5044874;28;20043;-72
2021/09/15 01:54:59;;;;;;;29.60;26.38;;;;;;;;;;5041344;28;20104;-73
2021/09/15 01:57:25;;;;;;;30.65;26.65;;;;;;;;;;5040667;28;20024;-73
2021/09/15 01:59:51;;;;;;;29.58;26.40;;;;;;;;;;5042396;28;20033;-73
2021/09/15 02:02:17;;;;;;;28.75;25.70;;;;;;;;;;5040693;28;20112;-73
2021/09/15 02:04:43;;;;;;;28.45;25.45;;;;;;;;;;5041150;28;20473;-72
2021/09/15 02:07:10;;;;;;;27.35;24.40;;;;;;;;;;5045319;28;20040;-72
2021/09/15 02:09:36;;;;;;;31.08;25.50;;;;;;;;;;5040819;28;20098;-72
2021/09/15 02:12:02;;;;;;;29.35;26.20;;;;;;;;;;5036165;28;20041;-72
2021/09/15 02:14:28;;;;;;;33.38;26.98;;;;;;;;;;5041090;28;20021;-72
2021/09/15 02:16:54;;;;;;;30.55;27.30;;;;;;;;;;5045977;28;20392;-72
2021/09/15 02:19:20;;;;;;;30.13;26.92;;;;;;;;;;5040512;28;20052;-72
2021/09/15 02:21:46;;;;;;;28.50;24.58;;;;;;;;;;5040303;28;20396;-73
2021/09/15 02:24:12;;;;;;;26.73;23.92;;;;;;;;;;5039939;28;20021;-72
2021/09/15 02:26:38;;;;;;;26.98;24.17;;;;;;;;;;5042778;28;20025;-72
2021/09/15 02:29:04;;;;;;;27.92;23.95;;;;;;;;;;5043309;28;20504;-72
2021/09/15 02:31:31;;;;;;;28.48;25.48;;;;;;;;;;5035160;28;20392;-72
2021/09/15 02:33:57;;;;;;;29.75;25.77;;;;;;;;;;5040722;28;20480;-73
2021/09/15 02:36:23;;;;;;;29.13;24.98;;;;;;;;;;5042273;28;20058;-72
2021/09/15 02:38:49;;;;;;;27.88;24.85;;;;;;;;;;5042431;28;20387;-73
2021/09/15 02:41:16;;;;;;;27.90;24.90;;;;;;;;;;5043458;28;20092;-72
2021/09/15 02:43:42;;;;;;;27.63;24.73;;;;;;;;;;5042737;28;20519;-72
2021/09/15 02:46:08;;;;;;;28.17;25.10;;;;;;;;;;5041551;28;20064;-73
2021/09/15 02:48:34;;;;;;;27.95;24.95;;;;;;;;;;5037327;28;20449;-72
2021/09/15 02:51:00;;;;;;;29.42;24.65;;;;;;;;;;5045286;28;20023;-71
2021/09/15 02:53:26;;;;;;;28.60;25.35;;;;;;;;;;5043336;28;20428;-72
2021/09/15 02:55:52;;;;;;;27.88;24.88;;;;;;;;;;5045816;28;20017;-74
2021/09/15 02:58:18;;;;;;;29.17;25.15;;;;;;;;;;5045488;28;20049;-74
2021/09/15 03:00:44;;;;;;;29.05;24.80;;;;;;;;;;5043919;28;20425;-74
2021/09/15 03:03:10;;;;;;;27.73;24.75;;;;;;;;;;5051787;28;20039;-73
2021/09/15 03:05:36;;;;;;;28.35;25.27;;;;;;;;;;5043008;28;20509;-74
2021/09/15 03:08:02;;;;;;;27.92;24.60;;;;;;;;;;5044409;28;20087;-74
2021/09/15 03:10:29;;;;;;;28.88;25.50;;;;;;;;;;5048869;28;20021;-74
2021/09/15 03:12:55;;;;;;;28.52;25.52;;;;;;;;;;5036467;28;20429;-73
2021/09/15 03:15:21;;;;;;;30.42;25.77;;;;;;;;;;5043991;28;20552;-74
2021/09/15 03:17:47;;;;;;;28.25;25.20;;;;;;;;;;5041713;28;20083;-73
2021/09/15 03:20:13;;;;;;;27.25;24.42;;;;;;;;;;5046624;28;20136;-73
2021/09/15 03:22:39;;;;;;;28.17;25.20;;;;;;;;;;5045729;28;20534;-73
2021/09/15 03:25:06;;;;;;;29.90;25.08;;;;;;;;;;5044928;28;20100;-73
2021/09/15 03:27:32;;;;;;;28.95;25.17;;;;;;;;;;5047425;28;20037;-72
2021/09/15 03:29:58;;;;;;;29.05;25.88;;;;;;;;;;5046368;28;20104;-73
2021/09/15 03:32:24;;;;;;;29.30;26.20;;;;;;;;;;5044785;28;20155;-74
2021/09/15 03:34:50;;;;;;;36.22;26.48;;;;;;;;;;5042829;28;20037;-74
2021/09/15 03:37:16;;;;;;;27.85;24.85;;;;;;;;;;5045862;28;20029;-73
2021/09/15 03:39:42;;;;;;;27.67;24.65;;;;;;;;;;5045893;28;20085;-74
2021/09/15 03:42:08;;;;;;;27.42;24.58;;;;;;;;;;5042737;28;20018;-74
2021/09/15 03:44:34;;;;;;;28.00;25.00;;;;;;;;;;5043662;28;20049;-74
2021/09/15 03:47:00;;;;;;;28.70;25.60;;;;;;;;;;5045491;28;20056;-73
2021/09/15 03:49:26;;;;;;;28.83;25.73;;;;;;;;;;5043826;28;20021;-74
2021/09/15 03:51:52;;;;;;;31.75;25.88;;;;;;;;;;5036460;28;20030;-74
2021/09/15 03:54:18;;;;;;;29.73;26.48;;;;;;;;;;5034677;28;20053;-75
2021/09/15 03:56:44;;;;;;;29.48;26.27;;;;;;;;;;5036955;28;20444;-74
2021/09/15 03:59:10;;;;;;;31.60;27.15;;;;;;;;;;5034509;28;20109;-74
2021/09/15 04:01:36;;;;;;;29.70;26.13;;;;;;;;;;5034086;28;20108;-74
2021/09/15 04:04:02;;;;;;;29.17;26.08;;;;;;;;;;5032712;28;20076;-74
2021/09/15 04:06:28;;;;;;;29.13;26.00;;;;;;;;;;5039962;28;20425;-74
2021/09/15 04:08:54;;;;;;;29.77;26.63;;;;;;;;;;5039348;28;20096;-75
2021/09/15 04:11:20;;;;;;;29.42;26.33;;;;;;;;;;5043275;28;20040;-64
2021/09/15 04:13:46;;;;;;;30.20;26.45;;;;;;;;;;5042893;28;20099;-61
2021/09/15 04:16:12;;;;;;;29.35;26.17;;;;;;;;;;5045727;28;20075;-61
2021/09/15 04:18:38;;;;;;;30.48;26.42;;;;;;;;;;5045788;28;20504;-61
2021/09/15 04:21:04;;;;;;;31.73;26.20;;;;;;;;;;5044294;28;20391;-61
2021/09/15 04:23:36;;;;;;;28.60;24.40;;;;;;;;;;5041009;28;20032;-60
2021/09/15 04:31:32;;;;;;;27.13;24.13;;;;;;;;;;5039627;28;20099;-60
2021/09/15 04:33:59;;;;;;;27.50;24.52;;;;;;;;;;5033785;28;20029;-60
2021/09/15 04:36:25;;;;;;;27.30;24.45;;;;;;;;;;5030582;28;20075;-60
2021/09/15 04:38:51;;;;;;;27.95;25.05;;;;;;;;;;5042897;28;20083;-60
2021/09/15 04:41:17;;;;;;;29.85;26.38;;;;;;;;;;5043802;28;20026;-60
2021/09/15 04:43:43;;;;;;;29.67;26.23;;;;;;;;;;5034623;28;20093;-61
2021/09/15 04:46:09;;;;;;;30.13;24.83;;;;;;;;;;5041791;28;20119;-60
2021/09/15 04:48:37;;;;;;;28.52;25.45;;;;;;;;;;5032900;28;20447;-59
2021/09/15 04:51:03;;;;;;;29.70;25.95;;;;;;;;;;5038047;28;20163;-59
2021/09/15 04:53:29;;;;;;;30.13;26.73;;;;;;;;;;5040504;28;20032;-59
2021/09/15 04:55:55;;;;;;;28.70;25.60;;;;;;;;;;5044474;28;20393;-59
2021/09/15 04:58:21;;;;;;;31.60;26.48;;;;;;;;;;5043208;28;20028;-59
2021/09/15 05:00:47;;;;;;;30.90;27.60;;;;;;;;;;5033414;28;20030;-59
2021/09/15 05:03:13;;;;;;;29.50;26.30;;;;;;;;;;5044080;28;20051;-59
2021/09/15 05:05:39;;;;;;;28.48;24.88;;;;;;;;;;5036635;28;20470;-60
2021/09/15 05:08:06;;;;;;;28.13;25.13;;;;;;;;;;5033272;28;20056;-60
2021/09/15 05:10:32;;;;;;;28.67;25.42;;;;;;;;;;5033475;28;20557;-59
2021/09/15 05:12:58;;;;;;;29.80;26.60;;;;;;;;;;5031587;28;20548;-61
2021/09/15 05:15:25;;;;;;;30.80;27.45;;;;;;;;;;5031949;28;20473;-62
2021/09/15 05:17:51;;;;;;;29.50;26.35;;;;;;;;;;5032654;28;20390;-61
2021/09/15 05:20:18;;;;;;;29.13;26.15;;;;;;;;;;5037021;28;20393;-60
2021/09/15 05:22:46;;;;;;;30.50;25.88;;;;;;;;;;5034420;28;20033;-60
2021/09/15 05:25:12;;;;;;;31.38;25.42;;;;;;;;;;5033753;28;20044;-61
2021/09/15 05:27:38;;;;;;;31.50;28.13;;;;;;;;;;5044146;28;20510;-60
2021/09/15 05:30:04;;;;;;;30.88;27.25;;;;;;;;;;5024376;28;20033;-60
2021/09/15 05:32:30;;;;;;;31.75;27.30;;;;;;;;;;5031546;28;20112;-60
2021/09/15 05:34:56;;;;;;;29.70;26.33;;;;;;;;;;5039678;28;20104;-59
2021/09/15 05:37:22;;;;;;;28.23;25.27;;;;;;;;;;5034147;28;20032;-60
2021/09/15 05:39:48;;;;;;;29.67;26.48;;;;;;;;;;5030989;28;20060;-60
2021/09/15 05:42:14;;;;;;;30.00;25.63;;;;;;;;;;5029261;28;20028;-60
2021/09/15 05:44:40;;;;;;;30.55;27.30;;;;;;;;;;5035710;28;20104;-60
2021/09/15 05:47:06;;;;;;;29.17;25.95;;;;;;;;;;5040753;28;20048;-60
2021/09/15 05:49:33;;;;;;;27.63;24.48;;;;;;;;;;5033328;28;20020;-60
2021/09/15 05:51:59;;;;;;;28.60;25.15;;;;;;;;;;5031423;28;20045;-60
2021/09/15 05:54:25;;;;;;;28.02;25.10;;;;;;;;;;5031699;28;20028;-60
2021/09/15 05:56:51;;;;;;;31.30;26.88;;;;;;;;;;5032114;28;20493;-60
2021/09/15 05:59:17;;;;;;;31.42;28.02;;;;;;;;;;5029896;28;20021;-60
2021/09/15 06:01:43;;;;;;;31.10;27.52;;;;;;;;;;5033878;28;20065;-60
2021/09/15 06:04:09;;;;;;;31.90;27.70;;;;;;;;;;5032422;28;20542;-60
2021/09/15 06:06:35;;;;;;;33.13;27.80;;;;;;;;;;5018715;28;20029;-61
2021/09/15 06:09:01;;;;;;;32.65;26.20;;;;;;;;;;5030965;28;20025;-61
2021/09/15 06:11:27;;;;;;;30.77;27.58;;;;;;;;;;5033562;28;20045;-61
2021/09/15 06:13:54;;;;;;;30.42;27.13;;;;;;;;;;5030652;28;20112;-61
2021/09/15 06:16:21;;;;;;;29.20;25.83;;;;;;;;;;5033221;28;20357;-61
2021/09/15 06:18:47;;;;;;;34.70;26.75;;;;;;;;;;5029998;28;20255;-61
2021/09/15 06:21:13;;;;;;;34.28;28.50;;;;;;;;;;5037400;28;20025;-61
2021/09/15 06:23:39;;;;;;;31.83;28.48;;;;;;;;;;5031913;28;20397;-61
2021/09/15 06:26:05;;;;;;;31.13;27.80;;;;;;;;;;5035238;28;20026;-60
2021/09/15 06:28:31;;;;;;;29.92;26.80;;;;;;;;;;5032425;28;20048;-61
2021/09/15 06:30:58;;;;;;;32.05;27.45;;;;;;;;;;5031786;28;20040;-61
2021/09/15 06:33:24;;;;;;;30.63;27.50;;;;;;;;;;5032520;28;20021;-61
2021/09/15 06:35:51;;;;;;;30.50;27.00;;;;;;;;;;5035906;28;20033;-61
2021/09/15 06:38:17;;;;;;;32.97;29.38;;;;;;;;;;5032364;28;20120;-61
2021/09/15 06:40:43;;;;;;;32.95;28.15;;;;;;;;;;5033979;28;20101;-61
2021/09/15 06:43:09;;;;;;;34.40;28.48;;;;;;;;;;5031521;28;20021;-61
2021/09/15 06:45:35;;;;;;;31.70;28.13;;;;;;;;;;5026068;28;20021;-61
2021/09/15 06:48:01;;;;;;;32.38;28.67;;;;;;;;;;5037107;28;20040;-61
2021/09/15 06:50:27;;;;;;;33.40;26.95;;;;;;;;;;5033986;28;20030;-61
2021/09/15 06:52:53;;;;;;;33.13;27.25;;;;;;;;;;5038858;28;20091;-61
2021/09/15 06:55:19;;;;;;;32.20;28.83;;;;;;;;;;5039643;28;20036;-62
2021/09/15 06:57:45;;;;;;;31.58;28.27;;;;;;;;;;5030085;28;20035;-61
2021/09/15 07:00:12;;;;;;;32.08;28.42;;;;;;;;;;5037834;28;20088;-61
2021/09/15 07:02:38;;;;;;;30.98;27.73;;;;;;;;;;5033194;28;20033;-61
2021/09/15 07:05:04;;;;;;;33.33;27.75;;;;;;;;;;5033267;28;20030;-61
2021/09/15 07:07:30;;;;;;;33.63;29.35;;;;;;;;;;5032851;28;20021;-60
2021/09/15 07:09:56;;;;;;;31.30;27.92;;;;;;;;;;5030192;28;20017;-60
2021/09/15 07:12:23;;;;;;;32.80;28.38;;;;;;;;;;5031919;28;20393;-60
2021/09/15 07:14:49;;;;;;;36.42;28.73;;;;;;;;;;5038412;28;20099;-60
2021/09/15 07:17:14;;;;;;;33.30;26.55;;;;;;;;;;5039613;28;20104;-60
2021/09/15 07:19:41;;;;;;;29.38;26.05;;;;;;;;;;5032857;28;20492;-60
2021/09/15 07:22:07;;;;;;;28.02;24.67;;;;;;;;;;5041616;28;20117;-60
2021/09/15 07:24:33;;;;;;;26.25;23.42;;;;;;;;;;5035087;28;20152;-60
2021/09/15 07:26:58;;;;;;;25.88;23.15;;;;;;;;;;5038974;28;20052;-60
2021/09/15 07:29:24;;;;;;;28.50;25.48;;;;;;;;;;5037441;28;20616;-60
2021/09/15 07:31:50;;;;;;;28.70;24.52;;;;;;;;;;5042352;28;20068;-61
2021/09/15 07:34:16;;;;;;;27.30;22.73;;;;;;;;;;5033957;28;20033;-60
2021/09/15 07:36:42;;;;;;;26.65;23.73;;;;;;;;;;5034101;28;20041;-60
2021/09/15 07:39:08;;;;;;;30.70;24.55;;;;;;;;;;5036752;28;20029;-60
2021/09/15 07:41:34;;;;;;;30.15;25.33;;;;;;;;;;5036363;28;20021;-60
2021/09/15 07:44:01;;;;;;;28.15;25.25;;;;;;;;;;5033106;28;21108;-60
2021/09/15 07:46:27;;;;;;;28.25;24.58;;;;;;;;;;5033005;28;20029;-60
2021/09/15 07:48:53;;;;;;;29.50;25.88;;;;;;;;;;5035023;28;20401;-60
2021/09/15 07:51:20;;;;;;;31.15;26.65;;;;;;;;;;5036737;28;20123;-61
2021/09/15 07:53:46;;;;;;;32.05;26.60;;;;;;;;;;5034355;28;20029;-61
2021/09/15 07:56:12;;;;;;;28.08;24.05;;;;;;;;;;5035662;28;20392;-61
2021/09/15 07:58:38;;;;;;;28.02;24.73;;;;;;;;;;5035841;28;20093;-60
2021/09/15 08:01:04;;;;;;;25.73;23.00;;;;;;;;;;5035210;28;20121;-61
2021/09/15 08:03:30;;;;;;;27.55;23.27;;;;;;;;;;5035633;28;20439;-60
2021/09/15 08:05:57;;;;;;;29.98;24.17;;;;;;;;;;5035967;28;20020;-60
2021/09/15 08:08:24;;;;;;;28.77;24.48;;;;;;;;;;5032887;28;20021;-60
2021/09/15 08:10:50;;;;;;;27.88;23.58;;;;;;;;;;5037138;28;20017;-60
2021/09/15 08:13:20;;;;;;;28.33;23.85;;;;;;;;;;5040577;28;20447;-61
2021/09/15 08:15:46;;;;;;;27.08;23.88;;;;;;;;;;5038119;28;20021;-61
2021/09/15 08:18:12;;;;;;;27.02;24.15;;;;;;;;;;5033728;28;20495;-60
2021/09/15 08:20:38;;;;;;;29.48;25.75;;;;;;;;;;5033981;28;20056;-61
2021/09/15 08:23:04;;;;;;;31.25;27.65;;;;;;;;;;5026096;28;20103;-60
2021/09/15 08:25:30;;;;;;;31.10;27.80;;;;;;;;;;5047725;28;20480;-60
2021/09/15 08:27:56;;;;;;;29.38;26.13;;;;;;;;;;5033153;28;20108;-60
2021/09/15 08:30:22;;;;;;;28.73;25.45;;;;;;;;;;5038492;28;20108;-60
2021/09/15 08:32:49;;;;;;;29.35;25.00;;;;;;;;;;5033938;28;20033;-60
2021/09/15 08:35:15;;;;;;;28.33;25.27;;;;;;;;;;5041542;28;20460;-60
2021/09/15 08:37:41;;;;;;;29.33;26.08;;;;;;;;;;5046670;28;20025;-61
2021/09/15 08:40:08;;;;;;;29.25;26.13;;;;;;;;;;5033583;28;20405;-61
2021/09/15 08:42:34;;;;;;;28.60;25.55;;;;;;;;;;5039111;28;20017;-61
2021/09/15 08:45:03;;;;;;;29.95;26.75;;;;;;;;;;5035179;28;20171;-60
2021/09/15 08:47:32;;;;;;;31.65;28.27;;;;;;;;;;5040723;28;20032;-60
2021/09/15 08:49:58;;;;;;;32.83;28.70;;;;;;;;;;5036228;28;20068;-60
2021/09/15 08:52:24;;;;;;;31.63;28.23;;;;;;;;;;5022552;28;20037;-60
2021/09/15 08:54:50;;;;;;;32.13;28.55;;;;;;;;;;5032713;28;20044;-60
2021/09/15 08:57:16;;;;;;;31.67;27.73;;;;;;;;;;5038601;28;20032;-60
2021/09/15 08:59:42;;;;;;;30.42;27.00;;;;;;;;;;5039671;28;20013;-60
2021/09/15 09:02:09;;;;;;;31.92;28.52;;;;;;;;;;5036933;28;20475;-60
2021/09/15 09:04:55;;;;;;;34.67;29.73;;;;;;;;;;5046308;28;20071;-60
2021/09/15 09:07:22;;;;;;;33.45;29.10;;;;;;;;;;5016634;28;20030;-60
2021/09/15 09:09:48;;;;;;;40.92;30.33;;;;;;;;;;5045376;28;20830;-60
2021/09/15 09:12:15;;;;;;;41.28;32.72;;;;;;;;;;5035612;28;20068;-60
2021/09/15 09:14:41;;;;;;;42.88;33.90;;;;;;;;;;5036771;28;20049;-61
2021/09/15 09:17:07;;;;;;;58.30;32.78;;;;;;;;;;5040691;28;20036;-61
2021/09/15 09:19:33;;;;;;;36.47;31.17;;;;;;;;;;5032241;28;20096;-61
2021/09/15 09:22:06;;;;;;;37.42;32.25;;;;;;;;;;5023903;28;20075;-61
2021/09/15 09:24:32;;;;;;;37.05;31.65;;;;;;;;;;5045316;28;20017;-61
2021/09/15 09:26:59;;;;;;;33.50;29.60;;;;;;;;;;5034210;28;20075;-60
2021/09/15 09:29:29;;;;;;;34.67;30.88;;;;;;;;;;5033044;28;20052;-60
2021/09/15 09:31:55;;;;;;;39.03;33.67;;;;;;;;;;5039490;28;20120;-60
2021/09/15 09:34:24;;;;;;;41.95;34.50;;;;;;;;;;5034274;28;20092;-61
2021/09/15 09:36:56;;;;;;;42.03;35.85;;;;;;;;;;5046631;28;20017;-61
2021/09/15 09:39:33;;;;;;;41.72;35.25;;;;;;;;;;5038181;28;20025;-61
2021/09/15 09:41:59;;;;;;;36.60;32.70;;;;;;;;;;5030732;28;20508;-61
2021/09/15 09:44:29;;;;;;;36.50;28.90;;;;;;;;;;5034009;28;20108;-61
2021/09/15 09:46:55;;;;;;;32.30;28.80;;;;;;;;;;5034712;28;20393;-60
2021/09/15 09:49:21;;;;;;;31.83;27.15;;;;;;;;;;5043484;28;20028;-61
2021/09/15 09:51:46;;;;;;;31.88;28.10;;;;;;;;;;5032761;28;20049;-61
2021/09/15 09:54:12;;;;;;;32.22;28.33;;;;;;;;;;5031613;28;20017;-61
2021/09/15 09:56:40;;;;;;;31.60;28.23;;;;;;;;;;5033289;28;20111;-61
2021/09/15 09:59:06;;;;;;;31.48;27.65;;;;;;;;;;5033708;28;20096;-61
2021/09/15 10:01:33;;;;;;;31.02;26.83;;;;;;;;;;5041107;28;20044;-61
2021/09/15 10:04:00;;;;;;;33.23;29.33;;;;;;;;;;5029942;28;20033;-61
2021/09/15 10:06:27;;;;;;;33.28;29.60;;;;;;;;;;5039762;28;20025;-61
2021/09/15 10:08:54;;;;;;;31.95;28.55;;;;;;;;;;5035892;28;20028;-61
2021/09/15 10:11:21;;;;;;;31.00;26.97;;;;;;;;;;5035350;28;20567;-61
2021/09/15 10:13:47;;;;;;;34.45;30.67;;;;;;;;;;5038630;28;20270;-61
2021/09/15 10:16:14;;;;;;;35.80;28.35;;;;;;;;;;5033859;28;20048;-61
2021/09/15 10:18:40;;;;;;;32.85;28.33;;;;;;;;;;5042618;28;20035;-61
2021/09/15 10:21:07;;;;;;;29.48;26.33;;;;;;;;;;5028247;28;20022;-61
2021/09/15 10:23:33;;;;;;;30.92;27.63;;;;;;;;;;5028669;28;20021;-61
2021/09/15 10:25:59;;;;;;;30.83;26.65;;;;;;;;;;5033329;28;20040;-61
2021/09/15 10:28:27;;;;;;;28.83;25.27;;;;;;;;;;5042216;28;20041;-62
2021/09/15 10:30:53;;;;;;;28.45;25.38;;;;;;;;;;5040059;28;20024;-62
2021/09/15 10:33:38;;;;;;;26.10;22.85;;;;;;;;;;5033254;28;20385;-61
2021/09/15 10:36:13;;;;;;;27.25;24.35;;;;;;;;;;5034906;28;20045;-61
2021/09/15 10:39:11;;;;;;;27.65;24.08;;;;;;;;;;5040749;28;20497;-61
2021/09/15 10:41:38;;;;;;;27.23;24.25;;;;;;;;;;5020438;28;20393;-61
2021/09/15 10:44:05;;;;;;;28.88;24.60;;;;;;;;;;5041675;28;20400;-61
2021/09/15 10:46:31;;;;;;;30.23;25.90;;;;;;;;;;5046699;28;20025;-61
2021/09/15 10:49:26;;;;;;;31.30;26.42;;;;;;;;;;5031203;28;20496;-61
2021/09/15 10:52:10;;;;;;;29.55;26.52;;;;;;;;;;5028108;28;20041;-61
2021/09/15 10:54:41;;;;;;;30.17;26.80;;;;;;;;;;5030450;28;20033;-61
2021/09/15 10:57:16;;;;;;;32.53;27.50;;;;;;;;;;5032214;28;20472;-61
2021/09/15 10:59:52;;;;;;;32.88;28.38;;;;;;;;;;5040075;28;20384;-61
2021/09/15 11:02:34;;;;;;;33.00;29.48;;;;;;;;;;5033323;28;20076;-61
2021/09/15 11:05:20;;;;;;;32.33;28.27;;;;;;;;;;5032471;28;20029;-61
2021/09/15 11:07:49;;;;;;;33.15;29.50;;;;;;;;;;5031805;28;20061;-61
2021/09/15 11:10:33;;;;;;;33.15;28.58;;;;;;;;;;5023123;28;20029;-62
2021/09/15 11:13:00;;;;;;;32.80;29.17;;;;;;;;;;5033855;28;20478;-61
2021/09/15 11:15:27;;;;;;;31.17;27.90;;;;;;;;;;5030882;28;20487;-61
2021/09/15 11:17:53;;;;;;;32.00;27.40;;;;;;;;;;5037198;28;20037;-61
2021/09/15 11:20:23;;;;;;;30.23;26.73;;;;;;;;;;5036152;28;20028;-61
2021/09/15 11:22:49;;;;;;;29.17;26.13;;;;;;;;;;5024999;28;20033;-61
2021/09/15 11:25:22;;;;;;;27.60;24.67;;;;;;;;;;5030189;28;20473;-61
2021/09/15 11:28:06;;;;;;;29.90;25.88;;;;;;;;;;5030485;28;20056;-61
2021/09/15 11:30:32;;;;;;;32.80;28.48;;;;;;;;;;5040892;28;20032;-61
2021/09/15 11:32:58;;;;;;;29.77;26.65;;;;;;;;;;5030173;28;20045;-61
2021/09/15 11:35:24;;;;;;;32.63;27.95;;;;;;;;;;5024534;28;20104;-62
2021/09/15 11:37:51;;;;;;;31.27;27.83;;;;;;;;;;5034501;28;20485;-61
2021/09/15 11:40:17;;;;;;;32.00;28.60;;;;;;;;;;5036367;28;20125;-61
2021/09/15 11:42:43;;;;;;;32.17;28.70;;;;;;;;;;5029898;28;20048;-61
2021/09/15 11:45:11;;;;;;;30.85;27.50;;;;;;;;;;5034027;28;20473;-61
2021/09/15 11:47:37;;;;;;;32.17;27.73;;;;;;;;;;5016805;28;20485;-62
2021/09/15 11:50:19;;;;;;;33.53;28.65;;;;;;;;;;5034283;28;20469;-62
2021/09/15 11:52:49;;;;;;;29.73;26.58;;;;;;;;;;5033403;28;20083;-62
2021/09/15 11:55:17;;;;;;;30.90;27.08;;;;;;;;;;5017983;28;20014;-61
2021/09/15 11:57:44;;;;;;;30.60;26.58;;;;;;;;;;5025818;28;20021;-61
2021/09/15 12:00:11;;;;;;;32.30;27.83;;;;;;;;;;5037810;28;20024;-61
2021/09/15 12:02:38;;;;;;;29.05;25.95;;;;;;;;;;5033826;28;20034;-62
2021/09/15 12:05:04;;;;;;;34.80;29.20;;;;;;;;;;5034511;28;20036;-61
2021/09/15 12:07:30;;;;;;;33.30;28.58;;;;;;;;;;5033722;28;20563;-61
2021/09/15 12:09:57;;;;;;;30.63;27.40;;;;;;;;;;5034396;28;20036;-61
2021/09/15 12:12:23;;;;;;;30.85;27.48;;;;;;;;;;5030465;28;20041;-61
2021/09/15 12:14:55;;;;;;;31.90;26.95;;;;;;;;;;5034263;28;20091;-65
2021/09/15 12:17:21;;;;;;;30.85;27.55;;;;;;;;;;5032715;28;20033;-64
2021/09/15 12:19:48;;;;;;;28.48;25.35;;;;;;;;;;5035975;28;20026;-64
2021/09/15 12:22:21;;;;;;;28.17;25.27;;;;;;;;;;5027819;28;20031;-65
2021/09/15 12:25:01;;;;;;;28.73;25.45;;;;;;;;;;5028109;28;20029;-64
2021/09/15 12:27:27;;;;;;;24.10;21.70;;;;;;;;;;5028534;28;20053;-65
2021/09/15 12:30:01;;;;;;;24.23;21.83;;;;;;;;;;5033112;28;20113;-64
2021/09/15 12:32:31;;;;;;;26.45;23.67;;;;;;;;;;5032352;28;20037;-65
2021/09/15 12:34:58;;;;;;;26.33;23.63;;;;;;;;;;5036675;28;20040;-64
2021/09/15 12:37:24;;;;;;;26.38;23.73;;;;;;;;;;5033995;28;20555;-66
2021/09/15 12:40:01;;;;;;;28.80;24.30;;;;;;;;;;5033050;28;20033;-66
2021/09/15 12:42:30;;;;;;;30.95;27.60;;;;;;;;;;5015855;28;20024;-66
2021/09/15 12:45:07;;;;;;;30.05;26.63;;;;;;;;;;5034830;28;20028;-67
2021/09/15 12:47:34;;;;;;;28.85;25.85;;;;;;;;;;5033617;28;20362;-65
2021/09/15 12:50:16;;;;;;;28.10;25.08;;;;;;;;;;5024736;28;20025;-65
2021/09/15 12:52:42;;;;;;;30.88;26.10;;;;;;;;;;5032259;28;20034;-65
2021/09/15 12:55:09;;;;;;;29.65;26.55;;;;;;;;;;5022923;28;20083;-65
2021/09/15 12:57:35;;;;;;;28.23;25.33;;;;;;;;;;5032185;28;20096;-64
2021/09/15 13:00:19;;;;;;;26.70;24.00;;;;;;;;;;5027881;28;20104;-63
2021/09/15 13:02:53;;;;;;;26.30;23.60;;;;;;;;;;5029858;28;20519;-64
2021/09/15 13:05:19;;;;;;;24.92;22.33;;;;;;;;;;5024658;28;20025;-65
2021/09/15 13:07:45;;;;;;;25.13;22.63;;;;;;;;;;5032955;28;20029;-66
2021/09/15 13:10:11;;;;;;;24.98;22.10;;;;;;;;;;5042141;28;20025;-66
2021/09/15 13:12:37;;;;;;;30.42;25.67;;;;;;;;;;5028892;28;20140;-67
2021/09/15 13:15:04;;;;;;;29.27;26.08;;;;;;;;;;5032630;28;20489;-65
2021/09/15 13:17:31;;;;;;;27.00;24.17;;;;;;;;;;5031300;28;20029;-67
2021/09/15 13:19:57;;;;;;;31.02;27.33;;;;;;;;;;5036303;28;20469;-66
2021/09/15 13:22:23;;;;;;;30.88;27.58;;;;;;;;;;5022004;28;20080;-68
2021/09/15 13:24:49;;;;;;;31.25;27.88;;;;;;;;;;5031841;28;20481;-66
2021/09/15 13:27:15;;;;;;;30.33;27.15;;;;;;;;;;5026053;28;20030;-66
2021/09/15 13:29:42;;;;;;;29.63;26.42;;;;;;;;;;5022796;28;20030;-66
2021/09/15 13:32:11;;;;;;;27.55;24.63;;;;;;;;;;5028014;28;20430;-65
2021/09/15 13:34:37;;;;;;;26.02;22.05;;;;;;;;;;5032285;28;20017;-66
2021/09/15 13:37:04;;;;;;;27.15;23.63;;;;;;;;;;5031665;28;20364;-69
2021/09/15 13:39:31;;;;;;;28.73;25.63;;;;;;;;;;5043680;28;20029;-68
2021/09/15 13:41:57;;;;;;;25.50;22.40;;;;;;;;;;5031830;28;20052;-65
2021/09/15 13:44:23;;;;;;;28.38;25.48;;;;;;;;;;5033432;28;20017;-64
2021/09/15 13:46:49;;;;;;;24.52;21.98;;;;;;;;;;5033275;28;20053;-64
2021/09/15 13:49:16;;;;;;;23.50;20.08;;;;;;;;;;5038370;28;20030;-64
2021/09/15 13:51:44;;;;;;;21.90;19.60;;;;;;;;;;5022437;28;20521;-65
2021/09/15 13:54:11;;;;;;;23.73;21.35;;;;;;;;;;5033643;28;20543;-64
2021/09/15 13:56:37;;;;;;;22.20;19.80;;;;;;;;;;5035126;28;20017;-65
2021/09/15 13:59:03;;;;;;;23.00;20.60;;;;;;;;;;5032991;28;20025;-63
2021/09/15 14:01:29;;;;;;;23.63;21.33;;;;;;;;;;5030777;28;20036;-66
2021/09/15 14:03:55;;;;;;;23.35;20.88;;;;;;;;;;5030404;28;20037;-67
2021/09/15 14:06:21;;;;;;;24.70;22.17;;;;;;;;;;5033291;28;20030;-68
2021/09/15 14:08:47;;;;;;;27.33;24.38;;;;;;;;;;5037124;28;20060;-69
2021/09/15 14:11:14;;;;;;;29.38;24.95;;;;;;;;;;5037610;28;20385;-70
2021/09/15 14:13:40;;;;;;;28.92;25.83;;;;;;;;;;5030123;28;20029;-68
2021/09/15 14:16:06;;;;;;;26.27;23.58;;;;;;;;;;5031109;28;20038;-66
2021/09/15 14:18:32;;;;;;;24.50;21.90;;;;;;;;;;5031507;28;20039;-68
2021/09/15 14:20:58;;;;;;;24.75;22.23;;;;;;;;;;5028272;28;20037;-68